Time;durP1;ratioP1;P1;durP2;ratioP2;P2;SDS_P1;SDS_P2;PMS_P1;PMS_P2;Temp;Humidity;BMP_temperature;BMP_pressure;BME280_temperature;BME280_humidity;BME280_pressure;Samples;Min_cycle;Max_cycle;Signal;HPM_P1;HPM_P2
2022/05/26 00:00:36;;;;;;;13.63;5.30;;;;;;;;;;5051026;28;20017;-73
2022/05/26 00:03:03;;;;;;;12.68;5.18;;;;;;;;;;5049933;28;20057;-73
2022/05/26 00:05:29;;;;;;;14.90;5.10;;;;;;;;;;5051258;28;20446;-73
2022/05/26 00:07:55;;;;;;;13.25;5.47;;;;;;;;;;5050129;28;20082;-73
2022/05/26 00:10:22;;;;;;;12.85;5.78;;;;;;;;;;5051319;28;20080;-73
2022/05/26 00:12:49;;;;;;;14.57;5.97;;;;;;;;;;5051114;28;20040;-73
2022/05/26 00:15:15;;;;;;;16.35;6.28;;;;;;;;;;5051239;28;20375;-74
2022/05/26 00:17:41;;;;;;;15.60;6.68;;;;;;;;;;5051088;28;20029;-73
2022/05/26 00:20:09;;;;;;;20.65;7.05;;;;;;;;;;5051004;28;20450;-73
2022/05/26 00:22:35;;;;;;;15.13;6.43;;;;;;;;;;5051104;28;20053;-73
2022/05/26 00:25:01;;;;;;;14.77;6.90;;;;;;;;;;5050921;28;20029;-73
2022/05/26 00:27:27;;;;;;;19.25;7.45;;;;;;;;;;5051109;28;20029;-73
2022/05/26 00:29:53;;;;;;;21.75;7.55;;;;;;;;;;5051438;28;20033;-73
2022/05/26 00:32:19;;;;;;;15.50;7.57;;;;;;;;;;5054529;28;20025;-73
2022/05/26 00:34:45;;;;;;;23.33;8.20;;;;;;;;;;5053277;28;20032;-73
2022/05/26 00:37:11;;;;;;;20.77;9.30;;;;;;;;;;5054722;28;20025;-73
2022/05/26 00:39:38;;;;;;;17.30;8.48;;;;;;;;;;5054634;28;20040;-73
2022/05/26 00:42:05;;;;;;;20.17;8.63;;;;;;;;;;5054648;28;20036;-73
2022/05/26 00:44:31;;;;;;;18.20;9.15;;;;;;;;;;5054562;28;20045;-73
2022/05/26 00:47:03;;;;;;;22.88;8.55;;;;;;;;;;5054418;28;20438;-73
2022/05/26 00:49:49;;;;;;;18.02;8.55;;;;;;;;;;5054448;28;20033;-73
2022/05/26 00:52:18;;;;;;;18.52;8.90;;;;;;;;;;5054383;28;20025;-73
2022/05/26 00:54:46;;;;;;;21.75;9.18;;;;;;;;;;5054266;28;20139;-73
2022/05/26 00:57:17;;;;;;;23.92;10.10;;;;;;;;;;5054302;28;20029;-73
2022/05/26 00:59:45;;;;;;;22.25;8.48;;;;;;;;;;5054107;28;20021;-73
2022/05/26 01:02:12;;;;;;;21.00;8.52;;;;;;;;;;5054086;28;20044;-73
2022/05/26 01:04:49;;;;;;;21.50;8.15;;;;;;;;;;5054074;28;20025;-73
2022/05/26 01:07:21;;;;;;;15.35;8.25;;;;;;;;;;5054247;28;20100;-73
2022/05/26 01:09:47;;;;;;;18.77;8.30;;;;;;;;;;5053968;28;20036;-73
2022/05/26 01:12:13;;;;;;;23.52;8.82;;;;;;;;;;5053915;28;20033;-73
2022/05/26 01:14:43;;;;;;;16.70;7.35;;;;;;;;;;5054064;28;20052;-73
2022/05/26 01:17:14;;;;;;;22.05;7.85;;;;;;;;;;5054027;28;20163;-73
2022/05/26 01:19:46;;;;;;;20.20;9.30;;;;;;;;;;5053961;28;20032;-73
2022/05/26 01:22:15;;;;;;;22.65;8.65;;;;;;;;;;5053879;28;20029;-73
2022/05/26 01:24:58;;;;;;;19.38;8.27;;;;;;;;;;5053687;28;20033;-73
2022/05/26 01:27:31;;;;;;;24.60;9.02;;;;;;;;;;5033842;28;20113;-73
2022/05/26 01:29:57;;;;;;;23.02;9.10;;;;;;;;;;5033714;28;20026;-73
2022/05/26 01:32:35;;;;;;;20.33;8.57;;;;;;;;;;5033528;28;20029;-73
2022/05/26 01:35:21;;;;;;;21.30;8.25;;;;;;;;;;5033554;28;20036;-73
2022/05/26 01:38:03;;;;;;;25.63;8.63;;;;;;;;;;5033541;28;20167;-73
2022/05/26 01:40:29;;;;;;;21.23;8.98;;;;;;;;;;5033353;28;20379;-73
2022/05/26 01:43:13;;;;;;;26.90;9.38;;;;;;;;;;5033422;28;20033;-73
2022/05/26 01:45:43;;;;;;;24.17;9.30;;;;;;;;;;5033382;28;20037;-73
2022/05/26 01:48:16;;;;;;;27.27;9.27;;;;;;;;;;5033484;28;20125;-73
2022/05/26 01:50:42;;;;;;;;;;;;;;;;;;5033844;28;20112;-73
2022/05/26 01:53:14;;;;;;;20.08;8.43;;;;;;;;;;5033359;28;19909;-73
2022/05/26 01:55:42;;;;;;;24.60;10.38;;;;;;;;;;5033179;28;20086;-73
2022/05/26 01:58:15;;;;;;;23.50;9.45;;;;;;;;;;5033212;28;20036;-73
2022/05/26 02:00:42;;;;;;;30.50;9.55;;;;;;;;;;5033031;28;20036;-73
2022/05/26 02:03:10;;;;;;;24.55;9.05;;;;;;;;;;5036950;28;20453;-73
2022/05/26 02:05:45;;;;;;;27.80;9.88;;;;;;;;;;5053054;28;20063;-73
2022/05/26 02:08:12;;;;;;;25.45;9.80;;;;;;;;;;5051471;28;20043;-73
2022/05/26 02:10:45;;;;;;;30.20;9.88;;;;;;;;;;5052770;28;20059;-73
2022/05/26 02:13:12;;;;;;;29.48;9.63;;;;;;;;;;5052956;28;20203;-73
2022/05/26 02:15:41;;;;;;;38.60;11.35;;;;;;;;;;5052654;28;20025;-73
2022/05/26 02:18:13;;;;;;;24.20;9.00;;;;;;;;;;5052942;28;20040;-73
2022/05/26 02:20:43;;;;;;;36.08;10.13;;;;;;;;;;5052674;28;20047;-73
2022/05/26 02:23:13;;;;;;;24.73;9.15;;;;;;;;;;5052808;28;20438;-73
2022/05/26 02:25:39;;;;;;;27.83;9.65;;;;;;;;;;5052482;28;20112;-73
2022/05/26 02:28:06;;;;;;;28.30;9.73;;;;;;;;;;5051113;28;20502;-73
2022/05/26 02:30:37;;;;;;;31.48;8.90;;;;;;;;;;5052204;28;20029;-72
2022/05/26 02:33:05;;;;;;;40.97;10.05;;;;;;;;;;5052358;28;20021;-73
2022/05/26 02:35:33;;;;;;;25.52;8.57;;;;;;;;;;5052389;28;20025;-73
2022/05/26 02:38:01;;;;;;;30.35;8.63;;;;;;;;;;5052349;28;20163;-73
2022/05/26 02:40:27;;;;;;;32.00;9.35;;;;;;;;;;5052335;28;20049;-73
2022/05/26 02:42:55;;;;;;;23.50;8.15;;;;;;;;;;5052189;28;20481;-73
2022/05/26 02:45:40;;;;;;;24.95;9.35;;;;;;;;;;5052220;28;20033;-73
2022/05/26 02:48:25;;;;;;;29.75;8.38;;;;;;;;;;5052236;28;20557;-73
2022/05/26 02:50:57;;;;;;;24.63;7.80;;;;;;;;;;5051978;28;20025;-73
2022/05/26 02:53:31;;;;;;;23.65;8.13;;;;;;;;;;5051516;28;20013;-73
2022/05/26 02:56:02;;;;;;;33.33;7.55;;;;;;;;;;5051911;28;20017;-73
2022/05/26 02:58:40;;;;;;;33.72;7.90;;;;;;;;;;5051994;28;20029;-73
2022/05/26 03:01:29;;;;;;;31.38;7.65;;;;;;;;;;5051912;28;20048;-73
2022/05/26 03:04:07;;;;;;;28.80;8.38;;;;;;;;;;5051842;28;20029;-73
2022/05/26 03:06:39;;;;;;;32.38;8.60;;;;;;;;;;5051889;28;20021;-73
2022/05/26 03:09:06;;;;;;;27.13;9.23;;;;;;;;;;5051820;28;20029;-73
2022/05/26 03:11:43;;;;;;;34.22;7.93;;;;;;;;;;5051657;28;20463;-73
2022/05/26 03:14:09;;;;;;;31.75;8.35;;;;;;;;;;5051912;28;20028;-73
2022/05/26 03:16:35;;;;;;;30.05;7.78;;;;;;;;;;5051786;28;20367;-73
2022/05/26 03:19:01;;;;;;;22.20;8.13;;;;;;;;;;5051696;28;20036;-73
2022/05/26 03:21:27;;;;;;;42.13;9.30;;;;;;;;;;5051877;28;20028;-73
2022/05/26 03:23:53;;;;;;;37.03;9.05;;;;;;;;;;5051685;28;20463;-73
2022/05/26 03:26:19;;;;;;;31.67;7.55;;;;;;;;;;5051562;28;20025;-73
2022/05/26 03:28:47;;;;;;;24.90;7.93;;;;;;;;;;5051638;28;20100;-73
2022/05/26 03:31:13;;;;;;;24.85;8.07;;;;;;;;;;5051507;28;20490;-73
2022/05/26 03:41:54;;;;;;;35.63;8.18;;;;;;;;;;5051774;28;20054;-73
2022/05/26 03:44:21;;;;;;;30.58;7.57;;;;;;;;;;5051278;28;20033;-73
2022/05/26 03:46:49;;;;;;;31.30;7.22;;;;;;;;;;5051410;28;20483;-73
2022/05/26 03:49:15;;;;;;;21.67;7.35;;;;;;;;;;5051365;28;20057;-73
2022/05/26 03:51:41;;;;;;;37.90;8.82;;;;;;;;;;5051399;28;20061;-73
2022/05/26 03:54:07;;;;;;;31.58;8.00;;;;;;;;;;5051454;28;20025;-73
2022/05/26 03:56:33;;;;;;;26.90;7.72;;;;;;;;;;5049769;28;20486;-72
2022/05/26 03:59:00;;;;;;;29.58;7.25;;;;;;;;;;5051171;28;20025;-73
2022/05/26 04:01:27;;;;;;;29.98;8.30;;;;;;;;;;5051326;28;20036;-73
2022/05/26 04:03:55;;;;;;;31.30;7.45;;;;;;;;;;5051638;28;20017;-73
2022/05/26 04:06:21;;;;;;;26.55;7.10;;;;;;;;;;5055338;28;20532;-73
2022/05/26 04:08:47;;;;;;;32.13;7.63;;;;;;;;;;5055139;28;20028;-73
2022/05/26 04:11:13;;;;;;;30.52;7.68;;;;;;;;;;5054651;28;20049;-73
2022/05/26 04:13:39;;;;;;;26.38;6.90;;;;;;;;;;5053859;28;20078;-73
2022/05/26 04:16:06;;;;;;;32.28;7.53;;;;;;;;;;5054835;28;20099;-73
2022/05/26 04:18:32;;;;;;;29.73;8.07;;;;;;;;;;5055072;28;20021;-73
2022/05/26 04:21:08;;;;;;;28.27;7.50;;;;;;;;;;5054917;28;20100;-72
2022/05/26 04:23:34;;;;;;;30.13;6.80;;;;;;;;;;5054796;28;20443;-73
2022/05/26 04:26:00;;;;;;;29.58;7.32;;;;;;;;;;5054662;28;20096;-73
2022/05/26 04:28:26;;;;;;;23.90;6.40;;;;;;;;;;5054728;28;20534;-73
2022/05/26 04:30:52;;;;;;;24.83;7.00;;;;;;;;;;5054521;28;20470;-73
2022/05/26 04:33:18;;;;;;;29.40;6.25;;;;;;;;;;5054747;28;20029;-73
2022/05/26 04:35:44;;;;;;;27.23;7.07;;;;;;;;;;5054639;28;20027;-73
2022/05/26 04:38:11;;;;;;;27.95;6.57;;;;;;;;;;5054660;28;20029;-73
2022/05/26 04:40:39;;;;;;;23.38;6.68;;;;;;;;;;5054466;28;20407;-73
2022/05/26 04:43:05;;;;;;;28.08;5.97;;;;;;;;;;5054485;28;20166;-73
2022/05/26 04:45:32;;;;;;;26.98;6.07;;;;;;;;;;5054407;28;20140;-73
2022/05/26 04:47:58;;;;;;;25.77;6.15;;;;;;;;;;5054428;28;20060;-73
2022/05/26 04:50:24;;;;;;;28.95;5.53;;;;;;;;;;5054414;28;20415;-73
2022/05/26 04:52:50;;;;;;;23.50;5.35;;;;;;;;;;5054389;28;20075;-73
2022/05/26 04:55:17;;;;;;;25.42;5.75;;;;;;;;;;5054282;28;20025;-73
2022/05/26 04:57:43;;;;;;;39.58;6.28;;;;;;;;;;5054297;28;20025;-73
2022/05/26 05:00:12;;;;;;;30.35;4.80;;;;;;;;;;5053935;28;20463;-73
2022/05/26 05:02:38;;;;;;;24.75;5.50;;;;;;;;;;5054153;28;20033;-73
2022/05/26 05:05:05;;;;;;;32.53;5.88;;;;;;;;;;5054104;28;20493;-73
2022/05/26 05:07:32;;;;;;;18.98;4.68;;;;;;;;;;5054023;28;20033;-72
2022/05/26 05:09:58;;;;;;;22.38;5.15;;;;;;;;;;5053916;28;20025;-73
2022/05/26 05:12:26;;;;;;;23.75;4.97;;;;;;;;;;5053895;28;20041;-73
2022/05/26 05:14:53;;;;;;;20.70;5.03;;;;;;;;;;5053881;28;20032;-73
2022/05/26 05:17:20;;;;;;;25.70;4.72;;;;;;;;;;5053227;28;20497;-73
2022/05/26 05:19:47;;;;;;;27.13;5.68;;;;;;;;;;5053839;28;20092;-73
2022/05/26 05:22:23;;;;;;;18.77;4.97;;;;;;;;;;5054020;28;20024;-73
2022/05/26 05:24:52;;;;;;;20.13;4.18;;;;;;;;;;5053815;28;20030;-73
2022/05/26 05:27:54;;;;;;;20.23;4.80;;;;;;;;;;5033713;28;20022;-72
2022/05/26 05:30:22;;;;;;;22.77;3.90;;;;;;;;;;5051250;28;20040;-72
2022/05/26 05:32:51;;;;;;;22.77;4.25;;;;;;;;;;5051126;28;20045;-72
2022/05/26 05:35:22;;;;;;;13.07;3.90;;;;;;;;;;5051263;28;20124;-72
2022/05/26 05:37:48;;;;;;;22.38;4.18;;;;;;;;;;5051230;28;20029;-72
2022/05/26 05:40:14;;;;;;;19.10;3.70;;;;;;;;;;5051092;28;20039;-72
2022/05/26 05:42:41;;;;;;;17.42;3.50;;;;;;;;;;5051162;28;20409;-72
2022/05/26 05:45:07;;;;;;;22.52;3.75;;;;;;;;;;5034224;28;20434;-72
2022/05/26 05:47:33;;;;;;;15.93;3.47;;;;;;;;;;5050961;28;20037;-73
2022/05/26 05:49:59;;;;;;;23.10;3.63;;;;;;;;;;5051071;28;20143;-72
2022/05/26 05:52:25;;;;;;;19.77;3.83;;;;;;;;;;5050936;28;20044;-72
2022/05/26 05:54:52;;;;;;;23.55;3.25;;;;;;;;;;5050871;28;20029;-72
2022/05/26 05:57:18;;;;;;;19.90;3.97;;;;;;;;;;5050825;28;20102;-72
2022/05/26 05:59:44;;;;;;;13.38;3.33;;;;;;;;;;5050610;28;20040;-72
2022/05/26 06:02:10;;;;;;;20.10;3.80;;;;;;;;;;5050765;28;20036;-73
2022/05/26 06:04:41;;;;;;;21.40;3.28;;;;;;;;;;5052049;28;20853;-73
2022/05/26 06:07:08;;;;;;;19.10;3.28;;;;;;;;;;5053092;28;20074;-72
2022/05/26 06:09:34;;;;;;;16.10;3.10;;;;;;;;;;5052938;28;20085;-73
2022/05/26 06:12:00;;;;;;;18.98;3.47;;;;;;;;;;5052592;28;20483;-73
2022/05/26 06:14:26;;;;;;;22.02;3.55;;;;;;;;;;5052791;28;20036;-72
2022/05/26 06:16:52;;;;;;;11.18;2.90;;;;;;;;;;5052786;28;20033;-73
2022/05/26 06:19:18;;;;;;;10.35;2.60;;;;;;;;;;5052721;28;20025;-72
2022/05/26 06:21:44;;;;;;;14.27;2.90;;;;;;;;;;5052625;28;20070;-73
2022/05/26 06:24:10;;;;;;;17.42;2.50;;;;;;;;;;5052891;28;20025;-73
2022/05/26 06:26:37;;;;;;;13.55;2.70;;;;;;;;;;5038761;28;20033;-72
2022/05/26 06:37:37;;;;;;;16.48;3.58;;;;;;;;;;5030244;28;20084;-73
2022/05/26 06:40:03;;;;;;;15.07;3.08;;;;;;;;;;5030105;28;20029;-73
2022/05/26 06:42:29;;;;;;;10.18;2.85;;;;;;;;;;5030003;28;20041;-73
2022/05/26 06:44:55;;;;;;;14.63;2.78;;;;;;;;;;5030109;28;20033;-73
2022/05/26 06:47:23;;;;;;;15.15;2.65;;;;;;;;;;5029920;28;20037;-73
2022/05/26 06:49:49;;;;;;;8.13;2.20;;;;;;;;;;5029965;28;20046;-73
2022/05/26 06:52:16;;;;;;;11.32;2.60;;;;;;;;;;5029834;28;20029;-73
2022/05/26 06:54:44;;;;;;;8.20;2.42;;;;;;;;;;5029833;28;20030;-73
2022/05/26 06:57:10;;;;;;;9.38;2.33;;;;;;;;;;5029894;28;20395;-73
2022/05/26 06:59:37;;;;;;;7.10;1.80;;;;;;;;;;5029617;28;20043;-73
2022/05/26 07:02:04;;;;;;;7.43;1.88;;;;;;;;;;5029592;28;20168;-73
2022/05/26 07:04:30;;;;;;;7.82;2.17;;;;;;;;;;5029568;28;20108;-73
2022/05/26 07:06:57;;;;;;;9.63;2.33;;;;;;;;;;5029730;28;20032;-73
2022/05/26 07:09:23;;;;;;;11.60;2.20;;;;;;;;;;5046065;28;20069;-73
2022/05/26 07:11:49;;;;;;;7.40;1.80;;;;;;;;;;5051586;28;20045;-73
2022/05/26 07:14:16;;;;;;;15.60;2.60;;;;;;;;;;5050358;28;20082;-73
2022/05/26 07:16:44;;;;;;;6.22;1.80;;;;;;;;;;5051755;28;20096;-73
2022/05/26 07:19:11;;;;;;;6.55;2.00;;;;;;;;;;5051807;28;20071;-73
2022/05/26 07:21:37;;;;;;;13.07;1.98;;;;;;;;;;5051730;28;20075;-73
2022/05/26 07:24:03;;;;;;;7.80;1.63;;;;;;;;;;5051757;28;20060;-73
2022/05/26 07:26:32;;;;;;;9.65;2.00;;;;;;;;;;5051490;28;20545;-73
2022/05/26 07:28:58;;;;;;;15.30;2.22;;;;;;;;;;5050075;28;20032;-73
2022/05/26 07:31:24;;;;;;;8.98;1.92;;;;;;;;;;5051472;28;20033;-73
2022/05/26 07:33:50;;;;;;;10.45;1.95;;;;;;;;;;5051612;28;20380;-73
2022/05/26 07:41:46;;;;;;;8.23;1.60;;;;;;;;;;5055721;28;20040;-73
2022/05/26 07:44:13;;;;;;;7.57;1.52;;;;;;;;;;5055566;28;20427;-73
2022/05/26 07:46:39;;;;;;;7.40;1.98;;;;;;;;;;5055627;28;20456;-73
2022/05/26 07:49:06;;;;;;;7.32;1.60;;;;;;;;;;5055500;28;20029;-73
2022/05/26 07:51:32;;;;;;;6.60;1.30;;;;;;;;;;5055515;28;20479;-73
2022/05/26 07:54:00;;;;;;;4.90;1.48;;;;;;;;;;5055502;28;20025;-73
2022/05/26 07:56:30;;;;;;;6.88;1.40;;;;;;;;;;5055354;28;20074;-73
2022/05/26 07:58:56;;;;;;;5.88;1.40;;;;;;;;;;5055364;28;20049;-73
2022/05/26 08:01:22;;;;;;;9.02;1.33;;;;;;;;;;5055313;28;20025;-73
2022/05/26 08:03:48;;;;;;;8.13;1.27;;;;;;;;;;5055292;28;20024;-73
2022/05/26 08:06:14;;;;;;;4.88;1.00;;;;;;;;;;5055359;28;20029;-73
2022/05/26 08:08:41;;;;;;;7.68;1.05;;;;;;;;;;5054960;28;20036;-73
2022/05/26 08:11:07;;;;;;;6.38;1.42;;;;;;;;;;5054643;28;20051;-73
2022/05/26 08:13:33;;;;;;;5.78;1.13;;;;;;;;;;5055004;28;20029;-73
2022/05/26 08:15:59;;;;;;;5.30;1.20;;;;;;;;;;5054957;28;20021;-73
2022/05/26 08:18:27;;;;;;;10.60;1.80;;;;;;;;;;5054871;28;20025;-73
2022/05/26 08:20:53;;;;;;;6.43;1.17;;;;;;;;;;5054855;28;20021;-73
2022/05/26 08:23:23;;;;;;;3.78;1.10;;;;;;;;;;5054928;28;20060;-73
2022/05/26 08:25:49;;;;;;;5.55;1.33;;;;;;;;;;5054641;28;20032;-73
2022/05/26 08:28:15;;;;;;;5.97;1.25;;;;;;;;;;5054759;28;20029;-73
2022/05/26 08:30:41;;;;;;;8.43;1.30;;;;;;;;;;5054616;28;20480;-73
2022/05/26 08:33:07;;;;;;;8.60;1.20;;;;;;;;;;5054703;28;20025;-73
2022/05/26 08:35:33;;;;;;;3.97;0.80;;;;;;;;;;5054691;28;20022;-73
2022/05/26 08:37:59;;;;;;;6.10;1.23;;;;;;;;;;5054644;28;20025;-73
2022/05/26 08:40:25;;;;;;;2.35;0.85;;;;;;;;;;5054735;28;20021;-73
2022/05/26 08:42:51;;;;;;;8.07;1.05;;;;;;;;;;5054520;28;20021;-72
2022/05/26 08:45:17;;;;;;;4.95;1.10;;;;;;;;;;5054556;28;20033;-73
2022/05/26 08:47:45;;;;;;;7.10;1.30;;;;;;;;;;5054444;28;20159;-73
2022/05/26 08:50:16;;;;;;;9.88;1.73;;;;;;;;;;5052574;28;20455;-73
2022/05/26 08:53:08;;;;;;;8.43;1.70;;;;;;;;;;5054013;28;20036;-73
2022/05/26 08:55:36;;;;;;;4.93;1.40;;;;;;;;;;5053055;28;20171;-73
2022/05/26 08:58:04;;;;;;;4.07;1.75;;;;;;;;;;5054357;28;20021;-73
2022/05/26 09:00:31;;;;;;;5.15;1.52;;;;;;;;;;5054002;28;20013;-73
2022/05/26 09:02:59;;;;;;;6.85;2.00;;;;;;;;;;5054226;28;20025;-73
2022/05/26 09:05:26;;;;;;;6.22;1.80;;;;;;;;;;5054203;28;20105;-73
2022/05/26 09:13:31;;;;;;;5.28;1.85;;;;;;;;;;5054074;28;20051;-73
2022/05/26 09:16:02;;;;;;;14.57;2.50;;;;;;;;;;5053940;28;20075;-73
2022/05/26 09:18:28;;;;;;;7.72;1.83;;;;;;;;;;5053915;28;20066;-73
2022/05/26 09:20:54;;;;;;;5.60;1.65;;;;;;;;;;5053800;28;20059;-73
2022/05/26 09:23:25;;;;;;;6.32;1.60;;;;;;;;;;5053887;28;20062;-73
2022/05/26 09:25:51;;;;;;;6.20;1.88;;;;;;;;;;5052163;28;20063;-73
2022/05/26 09:28:28;;;;;;;6.43;1.98;;;;;;;;;;5053843;28;20033;-73
2022/05/26 09:30:54;;;;;;;7.70;1.70;;;;;;;;;;5053601;28;20642;-73
2022/05/26 09:33:28;;;;;;;5.72;1.95;;;;;;;;;;5053621;28;20051;-73
2022/05/26 09:35:55;;;;;;;9.38;1.77;;;;;;;;;;5053604;28;20021;-72
2022/05/26 09:38:31;;;;;;;3.92;1.30;;;;;;;;;;5053408;28;20399;-73
2022/05/26 09:41:05;;;;;;;5.43;1.40;;;;;;;;;;5053453;28;20105;-73
2022/05/26 09:43:31;;;;;;;6.00;1.58;;;;;;;;;;5053436;28;20029;-73
2022/05/26 09:45:59;;;;;;;5.72;1.63;;;;;;;;;;5051909;28;20029;-73
2022/05/26 09:48:36;;;;;;;8.32;1.90;;;;;;;;;;5053271;28;20039;-73
2022/05/26 09:51:08;;;;;;;5.40;1.90;;;;;;;;;;5053350;28;20132;-73
2022/05/26 09:53:38;;;;;;;6.20;1.85;;;;;;;;;;5053294;28;20094;-73
2022/05/26 09:56:04;;;;;;;5.03;1.38;;;;;;;;;;5053123;28;20027;-73
2022/05/26 09:58:34;;;;;;;4.95;1.20;;;;;;;;;;5053137;28;20025;-73
2022/05/26 10:01:04;;;;;;;4.97;1.00;;;;;;;;;;5052858;28;20102;-73
2022/05/26 10:03:30;;;;;;;4.20;1.23;;;;;;;;;;5052927;28;20039;-73
2022/05/26 10:06:02;;;;;;;1.92;0.80;;;;;;;;;;5052863;28;20108;-73
2022/05/26 10:08:34;;;;;;;4.38;1.13;;;;;;;;;;5052924;28;20029;-73
2022/05/26 10:11:02;;;;;;;4.97;1.05;;;;;;;;;;5052675;28;20099;-73
2022/05/26 10:13:37;;;;;;;9.95;1.30;;;;;;;;;;5052711;28;20086;-73
2022/05/26 10:16:03;;;;;;;3.67;1.10;;;;;;;;;;5052678;28;20370;-73
2022/05/26 10:18:52;;;;;;;7.35;0.90;;;;;;;;;;5052808;28;20049;-73
2022/05/26 10:21:45;;;;;;;4.50;0.80;;;;;;;;;;5052735;28;20025;-73
2022/05/26 10:24:29;;;;;;;2.35;0.70;;;;;;;;;;5051358;28;20128;-73
2022/05/26 10:27:14;;;;;;;5.07;0.93;;;;;;;;;;5052425;28;20035;-73
2022/05/26 10:29:45;;;;;;;6.88;1.67;;;;;;;;;;5052497;28;20017;-73
2022/05/26 10:32:17;;;;;;;4.47;0.98;;;;;;;;;;5052300;28;20039;-73
2022/05/26 10:34:46;;;;;;;5.80;1.00;;;;;;;;;;5052424;28;20021;-73
2022/05/26 10:37:22;;;;;;;4.35;1.15;;;;;;;;;;5052398;28;20057;-73
2022/05/26 10:40:07;;;;;;;4.35;0.90;;;;;;;;;;5052301;28;20029;-73
2022/05/26 10:42:39;;;;;;;3.88;0.90;;;;;;;;;;5052256;28;20029;-73
2022/05/26 10:45:15;;;;;;;3.25;0.90;;;;;;;;;;5052193;28;20024;-73
2022/05/26 10:47:56;;;;;;;4.00;1.00;;;;;;;;;;5052014;28;20036;-73
2022/05/26 10:50:42;;;;;;;5.60;0.98;;;;;;;;;;5052147;28;20029;-73
2022/05/26 10:53:15;;;;;;;8.07;1.77;;;;;;;;;;5052006;28;20040;-73
2022/05/26 10:55:47;;;;;;;4.38;0.90;;;;;;;;;;5051925;28;20475;-73
2022/05/26 10:58:13;;;;;;;;;;;;;;;;;;5052570;28;20021;-73
2022/05/26 11:00:39;;;;;;;8.25;1.00;;;;;;;;;;5051765;28;19993;-73
2022/05/26 11:03:09;;;;;;;7.00;1.30;;;;;;;;;;5051898;28;20483;-73
2022/05/26 11:05:50;;;;;;;6.82;1.65;;;;;;;;;;5051959;28;20029;-73
2022/05/26 11:08:22;;;;;;;5.00;0.98;;;;;;;;;;5051789;28;20025;-73
2022/05/26 11:10:48;;;;;;;;;;;;;;;;;;5052057;28;20048;-73
2022/05/26 11:13:24;;;;;;;5.78;1.13;;;;;;;;;;5051470;28;19971;-73
2022/05/26 11:18:49;;;;;;;5.97;1.30;;;;;;;;;;5051665;28;20075;-73
2022/05/26 11:21:18;;;;;;;7.77;1.63;;;;;;;;;;5051699;28;20469;-73
2022/05/26 11:23:44;;;;;;;4.65;0.88;;;;;;;;;;5051665;28;20025;-73
2022/05/26 11:26:13;;;;;;;4.70;1.55;;;;;;;;;;5051357;28;20187;-73
2022/05/26 11:28:49;;;;;;;4.65;1.25;;;;;;;;;;5051468;28;20442;-73
2022/05/26 11:37:23;;;;;;;5.78;0.82;;;;;;;;;;5051445;28;20079;-73
2022/05/26 11:39:52;;;;;;;6.03;1.00;;;;;;;;;;5050127;28;20040;-73
2022/05/26 11:42:32;;;;;;;4.25;1.10;;;;;;;;;;5051365;28;20036;-73
2022/05/26 11:45:17;;;;;;;4.32;1.17;;;;;;;;;;5051411;28;20032;-73
2022/05/26 11:47:51;;;;;;;10.77;1.30;;;;;;;;;;5051331;28;20107;-73
2022/05/26 11:50:22;;;;;;;4.57;1.13;;;;;;;;;;5051117;28;20029;-73
2022/05/26 11:52:48;;;;;;;4.18;0.93;;;;;;;;;;5051117;28;20033;-73
2022/05/26 11:55:18;;;;;;;6.38;1.02;;;;;;;;;;5051132;28;20025;-73
2022/05/26 11:57:44;;;;;;;5.88;1.17;;;;;;;;;;5050978;28;20060;-73
2022/05/26 12:00:17;;;;;;;8.05;0.90;;;;;;;;;;5051108;28;20452;-73
2022/05/26 12:02:43;;;;;;;;;;;;;;;;;;5051525;28;20033;-73
2022/05/26 12:05:27;;;;;;;6.45;0.60;;;;;;;;;;5051103;28;19951;-73
2022/05/26 12:07:53;;;;;;;4.20;0.75;;;;;;;;;;5051232;28;20025;-73
2022/05/26 12:10:22;;;;;;;5.80;1.00;;;;;;;;;;5051135;28;20091;-74
2022/05/26 12:12:49;;;;;;;3.67;0.63;;;;;;;;;;5051013;28;20052;-73
2022/05/26 12:15:20;;;;;;;5.38;0.70;;;;;;;;;;5051012;28;20056;-73
2022/05/26 12:17:55;;;;;;;4.30;0.60;;;;;;;;;;5051031;28;20066;-73
2022/05/26 12:20:21;;;;;;;2.97;0.60;;;;;;;;;;5051050;28;20108;-73
2022/05/26 12:22:47;;;;;;;3.38;0.70;;;;;;;;;;5051227;28;20036;-73
2022/05/26 12:25:23;;;;;;;3.08;0.50;;;;;;;;;;5051865;28;20033;-73
2022/05/26 12:27:51;;;;;;;4.95;0.80;;;;;;;;;;5054735;28;20510;-73
2022/05/26 12:30:37;;;;;;;6.95;1.05;;;;;;;;;;5054614;28;20036;-73
2022/05/26 12:33:15;;;;;;;4.43;0.98;;;;;;;;;;5054766;28;20034;-73
2022/05/26 12:35:47;;;;;;;5.22;0.88;;;;;;;;;;5054700;28;20390;-73
2022/05/26 12:38:13;;;;;;;;;;;;;;;;;;5054920;28;20038;-73
2022/05/26 12:40:49;;;;;;;5.95;1.10;;;;;;;;;;5054619;28;19905;-73
2022/05/26 12:43:18;;;;;;;6.10;1.23;;;;;;;;;;5054480;28;20074;-73
2022/05/26 12:45:48;;;;;;;5.15;0.80;;;;;;;;;;5054331;28;20021;-73
2022/05/26 12:48:34;;;;;;;4.28;0.98;;;;;;;;;;5054522;28;20041;-73
2022/05/26 12:51:08;;;;;;;7.93;0.88;;;;;;;;;;5054280;28;20028;-73
2022/05/26 12:53:37;;;;;;;6.32;1.00;;;;;;;;;;5054319;28;20036;-73
2022/05/26 12:56:14;;;;;;;4.90;1.63;;;;;;;;;;5054068;28;20494;-73
2022/05/26 12:58:44;;;;;;;4.60;0.82;;;;;;;;;;5054131;28;20157;-74
2022/05/26 13:01:14;;;;;;;6.70;1.17;;;;;;;;;;5054025;28;20021;-73
2022/05/26 13:03:44;;;;;;;6.65;1.08;;;;;;;;;;5054130;28;20162;-73
2022/05/26 13:06:13;;;;;;;2.55;0.60;;;;;;;;;;5054193;28;20029;-73
2022/05/26 13:08:51;;;;;;;5.88;0.88;;;;;;;;;;5052825;28;20361;-73
2022/05/26 13:11:21;;;;;;;5.63;0.98;;;;;;;;;;5033700;28;20045;-72
2022/05/26 13:13:51;;;;;;;5.45;0.70;;;;;;;;;;5034150;28;20033;-73
2022/05/26 13:16:31;;;;;;;6.03;1.05;;;;;;;;;;5033919;28;20021;-73
2022/05/26 13:19:06;;;;;;;4.22;0.82;;;;;;;;;;5033904;28;20026;-72
2022/05/26 13:21:33;;;;;;;4.50;0.73;;;;;;;;;;5033876;28;20037;-73
2022/05/26 13:23:59;;;;;;;4.30;0.70;;;;;;;;;;5033739;28;20061;-73
2022/05/26 13:26:25;;;;;;;4.75;0.70;;;;;;;;;;5046116;28;20067;-73
2022/05/26 13:28:56;;;;;;;4.55;0.85;;;;;;;;;;5053590;28;20064;-73
2022/05/26 13:34:10;;;;;;;8.52;1.00;;;;;;;;;;5053564;28;20061;-73
2022/05/26 13:36:46;;;;;;;3.67;0.90;;;;;;;;;;5053217;28;20071;-73
2022/05/26 13:39:14;;;;;;;3.33;0.80;;;;;;;;;;5053522;28;20078;-73
2022/05/26 13:41:41;;;;;;;2.72;0.80;;;;;;;;;;5053421;28;20036;-73
2022/05/26 13:44:09;;;;;;;4.40;0.95;;;;;;;;;;5053544;28;20343;-73
2022/05/26 13:46:38;;;;;;;3.22;1.25;;;;;;;;;;5053385;28;20021;-73
2022/05/26 13:49:23;;;;;;;3.45;0.90;;;;;;;;;;5053376;28;20041;-73
2022/05/26 13:51:50;;;;;;;7.15;1.40;;;;;;;;;;5053418;28;20426;-73
2022/05/26 13:54:25;;;;;;;6.78;1.33;;;;;;;;;;5053099;28;20032;-73
2022/05/26 13:56:51;;;;;;;7.50;1.50;;;;;;;;;;5053376;28;20075;-73
2022/05/26 13:59:18;;;;;;;4.97;1.13;;;;;;;;;;5053004;28;20028;-75
2022/05/26 14:01:51;;;;;;;9.48;1.50;;;;;;;;;;5052873;28;20375;-73
2022/05/26 14:04:29;;;;;;;5.15;1.75;;;;;;;;;;5053097;28;20029;-74
2022/05/26 14:06:55;;;;;;;7.93;1.63;;;;;;;;;;5052869;28;20056;-74
2022/05/26 14:09:26;;;;;;;5.72;1.48;;;;;;;;;;5052856;28;20140;-73
2022/05/26 14:12:03;;;;;;;7.28;1.60;;;;;;;;;;5052736;28;20049;-73
2022/05/26 14:14:36;;;;;;;5.60;1.80;;;;;;;;;;5052650;28;20021;-73
2022/05/26 14:17:01;;;;;;;;;;;;;;;;;;5053314;28;20368;-73
2022/05/26 14:19:33;;;;;;;3.58;1.00;;;;;;;;;;5052580;28;19909;-73
2022/05/26 14:21:59;;;;;;;4.50;0.80;;;;;;;;;;5052719;28;20372;-73
2022/05/26 14:24:32;;;;;;;4.00;0.70;;;;;;;;;;5052666;28;20090;-72
2022/05/26 14:27:03;;;;;;;4.35;0.57;;;;;;;;;;5052291;28;20037;-73
2022/05/26 14:29:29;;;;;;;3.72;0.80;;;;;;;;;;5052604;28;20033;-73
2022/05/26 14:32:08;;;;;;;3.35;0.70;;;;;;;;;;5052401;28;20036;-73
2022/05/26 14:34:36;;;;;;;3.42;0.93;;;;;;;;;;5052546;28;20025;-73
2022/05/26 14:37:02;;;;;;;4.05;1.48;;;;;;;;;;5052607;28;20033;-73
2022/05/26 14:39:28;;;;;;;7.15;0.70;;;;;;;;;;5052442;28;20613;-72
2022/05/26 14:41:55;;;;;;;5.38;1.10;;;;;;;;;;5052513;28;20111;-73
2022/05/26 14:44:21;;;;;;;5.95;1.13;;;;;;;;;;5052341;28;20029;-73
2022/05/26 14:46:47;;;;;;;5.25;1.10;;;;;;;;;;5052226;28;20029;-73
2022/05/26 14:49:14;;;;;;;5.25;1.00;;;;;;;;;;5051444;28;20021;-73
2022/05/26 14:51:42;;;;;;;3.85;1.10;;;;;;;;;;5052203;28;20033;-73
2022/05/26 14:56:53;;;;;;;12.82;1.98;;;;;;;;;;5052374;28;20090;-73
2022/05/26 14:59:19;;;;;;;3.72;1.30;;;;;;;;;;5052406;28;20039;-73
2022/05/26 15:01:45;;;;;;;5.57;2.15;;;;;;;;;;5052273;28;20461;-73
2022/05/26 15:04:12;;;;;;;5.15;1.38;;;;;;;;;;5052393;28;20033;-73
2022/05/26 15:06:42;;;;;;;8.48;1.20;;;;;;;;;;5052308;28;20032;-73
2022/05/26 15:09:11;;;;;;;3.67;1.02;;;;;;;;;;5052017;28;20032;-74
2022/05/26 15:11:37;;;;;;;5.43;1.20;;;;;;;;;;5050427;28;20132;-73
2022/05/26 15:14:03;;;;;;;4.95;1.20;;;;;;;;;;5051958;28;20486;-73
2022/05/26 15:16:30;;;;;;;5.78;1.33;;;;;;;;;;5050575;28;20137;-73
2022/05/26 15:18:56;;;;;;;8.57;1.50;;;;;;;;;;5051702;28;20032;-73
2022/05/26 15:21:23;;;;;;;4.15;1.05;;;;;;;;;;5051844;28;20490;-73
2022/05/26 15:23:49;;;;;;;5.55;1.20;;;;;;;;;;5051729;28;20052;-73
2022/05/26 15:26:16;;;;;;;4.07;1.17;;;;;;;;;;5051558;28;20048;-73
2022/05/26 15:28:43;;;;;;;6.00;1.58;;;;;;;;;;5051737;28;20360;-74
2022/05/26 15:31:09;;;;;;;5.93;1.27;;;;;;;;;;5051507;28;20032;-74
2022/05/26 15:33:36;;;;;;;4.95;1.35;;;;;;;;;;5051736;28;20029;-73